This is the latest recevied weather packets stored in our database for station/object DC1NF-7. If no packets are shown the sender has not sent any weather packets the latest 10 day(s).
| Time | Temp. | Humidity | Pressure | Rain* | Wind** | Luminosity | Snow |
|---|---|---|---|---|---|---|---|
| 1777332936 | 9.44° C | 57% | 1019.8 hPa | 0 mm | - | 0 W/m² | - |
| 1777332335 | 10° C | 56% | 1019.7 hPa | 0 mm | - | 0 W/m² | - |
| 1777331727 | 10° C | 54% | 1019.7 hPa | 0 mm | - | 0 W/m² | - |
| 1777331124 | 10° C | 53% | 1019.7 hPa | 0 mm | - | 0 W/m² | - |
| 1777330524 | 10° C | 54% | 1019.7 hPa | 0 mm | - | 0 W/m² | - |
| 1777329918 | 10.56° C | 53% | 1019.7 hPa | 0 mm | - | 0 W/m² | - |
| 1777329378 | 10.56° C | 52% | 1019.7 hPa | 0 mm | - | 0 W/m² | - |
| 1777328770 | 11.11° C | 51% | 1019.7 hPa | 0 mm | - | 0 W/m² | - |
| 1777328166 | 10.56° C | 52% | 1019.8 hPa | 0 mm | - | 0 W/m² | - |
| 1777327565 | 10.56° C | 53% | 1019.8 hPa | 0 mm | - | 0 W/m² | - |
| 1777326957 | 11.11° C | 50% | 1019.8 hPa | 0 mm | - | 0 W/m² | - |
| 1777326353 | 11.11° C | 50% | 1019.8 hPa | 0 mm | - | 0 W/m² | - |
| 1777325750 | 11.11° C | 50% | 1019.8 hPa | 0 mm | - | 0 W/m² | - |
| 1777325146 | 11.67° C | 49% | 1019.8 hPa | 0 mm | - | 0 W/m² | - |
| 1777324543 | 11.67° C | 49% | 1019.8 hPa | 0 mm | - | 0 W/m² | - |
| 1777323940 | 11.67° C | 49% | 1019.9 hPa | 0 mm | - | 0 W/m² | - |
| 1777323338 | 12.22° C | 49% | 1020 hPa | 0 mm | - | 0 W/m² | - |
| 1777322734 | 12.22° C | 47% | 1019.9 hPa | 0 mm | - | 0 W/m² | - |
| 1777322127 | 12.78° C | 47% | 1019.9 hPa | 0 mm | - | 0 W/m² | - |
| 1777321525 | 12.78° C | 46% | 1019.8 hPa | 0 mm | - | 0 W/m² | - |
| 1777320921 | 12.78° C | 45% | 1019.8 hPa | 0 mm | - | 0 W/m² | - |
| 1777320318 | 12.78° C | 45% | 1019.8 hPa | 0 mm | - | 0 W/m² | - |
| 1777319778 | 11.67° C | 47% | 1019.8 hPa | 0 mm | - | 0 W/m² | - |
| 1777319172 | 11.11° C | 48% | 1019.8 hPa | 0 mm | - | 0 W/m² | - |
| 1777318568 | 11.67° C | 46% | 1019.6 hPa | 0 mm | - | 0 W/m² | - |
* Rain latest hour (hover to see other rain measurements)
** Current wind speed in m/s (hover to see current wind gust speed)